Koulamoutou, Gabon
Current Conditions -  °F | °C
As of 1:00 PM on Monday 22 Dec 2014 (Local Time) from FCPD Reporting Station
Scattered Clouds Scattered Clouds  
Wind Chill: 84°   Ceiling: Unl
Heat Index: 90°   Visibility: 6mi
Dew Point: 72°   Wind: 7mph
Humidity: 66%   Direction: 220°SW
Pressure: 29.91"   Gusts: NA
Location:  1.12°S, 12.5°E
Report Text: FCPD 221200Z 22006KT 9999 SCT023 29/22 Q1013
Loading
Personal Weather Stations






























Interactive Weather Map New forecast layout! Learn more

10-Day Weather Forecast

Advertisements
Track Severe Weather on mobile